Time;durP1;ratioP1;P1;durP2;ratioP2;P2;SDS_P1;SDS_P2;PMS_P1;PMS_P2;Temp;Humidity;BMP_temperature;BMP_pressure;BME280_temperature;BME280_humidity;BME280_pressure;Samples;Min_cycle;Max_cycle;Signal;HPM_P1;HPM_P2
2021/12/07 00:01:59;;;;;;;14.52;11.13;;;;;;;0.36;95.52;100450.84;5058546;28;20060;-67
2021/12/07 00:04:24;;;;;;;13.10;10.88;;;;;;;0.37;95.62;100449.09;5057848;28;20025;-67
2021/12/07 00:06:50;;;;;;;14.52;11.63;;;;;;;0.38;95.67;100453.41;5071674;28;20029;-67
2021/12/07 00:09:17;;;;;;;15.82;12.27;;;;;;;0.39;96.17;100455.09;5071518;28;20402;-67
2021/12/07 00:11:44;;;;;;;16.40;12.43;;;;;;;0.40;96.14;100458.56;5047593;28;20510;-67
2021/12/07 00:14:21;;;;;;;17.15;13.05;;;;;;;0.40;96.37;100462.03;5054931;28;20029;-67
2021/12/07 00:16:46;;;;;;;16.33;12.55;;;;;;;0.43;96.50;100453.22;5071572;28;20027;-67
2021/12/07 00:19:12;;;;;;;18.02;13.70;;;;;;;0.44;96.78;100461.00;5053026;28;20028;-67
2021/12/07 00:21:39;;;;;;;18.23;14.00;;;;;;;0.45;96.90;100465.31;5041412;28;20036;-68
2021/12/07 00:24:05;;;;;;;20.02;15.85;;;;;;;0.47;97.14;100463.47;5067303;28;20157;-67
2021/12/07 00:26:31;;;;;;;20.15;15.07;;;;;;;0.50;97.50;100468.59;5070680;28;20112;-68
2021/12/07 00:28:58;;;;;;;21.95;15.82;;;;;;;0.53;97.43;100468.47;5062498;28;20103;-67
2021/12/07 00:31:30;;;;;;;22.27;16.08;;;;;;;0.54;97.73;100472.75;5040990;28;20032;-68
2021/12/07 00:36:44;;;;;;;26.48;17.65;;;;;;;0.64;97.74;100477.63;5039889;28;20133;-67
2021/12/07 00:39:09;;;;;;;24.73;17.85;;;;;;;0.67;98.03;100482.72;5061069;28;20031;-67
2021/12/07 00:41:34;;;;;;;25.95;18.40;;;;;;;0.71;98.36;100492.97;5054351;28;20037;-68
2021/12/07 00:44:02;;;;;;;27.52;19.13;;;;;;;0.76;98.60;100500.63;5070430;28;20036;-68
2021/12/07 00:46:27;;;;;;;25.33;18.33;;;;;;;0.80;99.15;100498.72;5068692;28;20158;-67
2021/12/07 00:48:53;;;;;;;29.98;19.15;;;;;;;0.83;99.38;100501.22;5065417;28;20496;-68
2021/12/07 00:51:18;;;;;;;30.10;18.85;;;;;;;0.87;99.37;100494.97;5048912;28;20037;-67
2021/12/07 00:53:44;;;;;;;29.73;19.40;;;;;;;0.92;99.49;100514.78;5064935;28;20028;-68
2021/12/07 00:56:09;;;;;;;32.00;20.30;;;;;;;0.99;99.97;100506.69;5061823;28;20434;-67
2021/12/07 00:58:35;;;;;;;30.80;19.85;;;;;;;1.04;100.00;100517.78;5055655;28;20036;-67
2021/12/07 01:01:07;;;;;;;33.38;19.98;;;;;;;1.09;100.00;100516.66;5057794;28;20020;-68
2021/12/07 01:03:33;;;;;;;31.90;19.13;;;;;;;1.16;100.00;100517.25;5062188;28;20032;-68
2021/12/07 01:06:16;;;;;;;32.92;20.10;;;;;;;1.22;100.00;100522.25;5070652;28;20039;-68
2021/12/07 01:25:03;;;;;;;32.08;17.95;;;;;;;1.44;100.00;100576.25;5050477;28;20039;-68
2021/12/07 01:27:29;;;;;;;31.63;18.17;;;;;;;1.47;100.00;100563.88;5047651;28;20057;-68
2021/12/07 01:30:20;;;;;;;36.20;18.42;;;;;;;1.50;100.00;100576.00;5050450;28;20068;-68
2021/12/07 01:33:00;;;;;;;33.33;16.88;;;;;;;1.53;100.00;100567.16;5064164;28;20428;-68
2021/12/07 01:35:50;;;;;;;28.90;16.20;;;;;;;1.55;100.00;100574.03;5050337;28;20040;-68
2021/12/07 02:01:57;;;;;;;26.25;10.70;;;;;;;1.85;100.00;100607.66;5059758;28;20052;-68
2021/12/07 02:04:23;;;;;;;33.38;10.93;;;;;;;1.90;100.00;100607.44;5063696;28;20025;-69
2021/12/07 02:06:48;;;;;;;25.27;9.98;;;;;;;1.90;100.00;100616.16;5066956;28;20029;-69
2021/12/07 02:09:13;;;;;;;24.58;9.63;;;;;;;1.92;100.00;100623.94;5073853;28;20139;-69
2021/12/07 02:11:46;;;;;;;29.83;8.63;;;;;;;1.90;100.00;100624.00;5062780;28;20037;-69
2021/12/07 02:14:16;;;;;;;28.45;9.75;;;;;;;1.92;100.00;100631.81;5069579;28;20097;-69
2021/12/07 02:16:56;;;;;;;26.95;8.32;;;;;;;1.94;100.00;100635.19;5054709;28;20118;-69
2021/12/07 02:19:23;;;;;;;23.52;8.32;;;;;;;1.97;100.00;100635.91;5070660;28;20025;-69
2021/12/07 02:21:48;;;;;;;26.92;7.45;;;;;;;1.99;100.00;100641.94;5055030;28;20032;-69
2021/12/07 02:24:14;;;;;;;26.95;7.68;;;;;;;1.99;100.00;100636.69;5050045;28;20036;-69
2021/12/07 02:26:39;;;;;;;24.48;7.20;;;;;;;2.00;100.00;100648.88;5046715;28;20568;-69
2021/12/07 02:29:05;;;;;;;22.35;6.07;;;;;;;2.06;100.00;100646.91;5053476;28;20116;-69
2021/12/07 02:31:31;;;;;;;27.88;6.15;;;;;;;2.07;100.00;100644.22;5054368;28;20043;-70
2021/12/07 02:33:57;;;;;;;25.33;5.80;;;;;;;2.08;100.00;100643.28;5052138;28;20017;-69
2021/12/07 02:36:22;;;;;;;22.15;6.47;;;;;;;2.09;100.00;100659.88;5044166;28;20086;-70
2021/12/07 02:38:47;;;;;;;23.58;5.85;;;;;;;2.08;100.00;100659.00;5064548;28;20075;-69
2021/12/07 02:41:13;;;;;;;15.63;5.57;;;;;;;2.08;100.00;100658.16;5066323;28;20031;-69
2021/12/07 02:43:39;;;;;;;28.17;5.45;;;;;;;2.08;100.00;100671.25;5057894;28;20033;-69
2021/12/07 02:46:04;;;;;;;27.38;5.28;;;;;;;2.08;100.00;100671.25;5070907;28;20086;-69
2021/12/07 02:48:29;;;;;;;19.13;5.15;;;;;;;2.08;100.00;100674.72;5063681;28;20033;-69
2021/12/07 02:50:55;;;;;;;24.33;5.68;;;;;;;2.10;100.00;100685.13;5064339;28;20447;-69
2021/12/07 02:53:22;;;;;;;23.85;5.05;;;;;;;2.08;100.00;100681.72;5053269;28;20083;-70
2021/12/07 02:55:53;;;;;;;19.60;5.10;;;;;;;2.09;100.00;100686.06;5052553;28;20048;-70
2021/12/07 02:58:19;;;;;;;25.35;5.10;;;;;;;2.07;100.00;100690.53;5071384;28;20086;-70
2021/12/07 03:00:55;;;;;;;28.58;5.43;;;;;;;2.04;100.00;100692.34;5046461;28;20468;-70
2021/12/07 03:03:20;;;;;;;26.15;4.50;;;;;;;2.04;100.00;100702.81;5041499;28;20021;-70
2021/12/07 03:06:06;;;;;;;20.88;4.80;;;;;;;2.03;100.00;100714.22;5064043;28;20485;-70
2021/12/07 03:27:30;;;;;;;20.17;3.88;;;;;;;1.97;99.21;100734.59;5053746;28;20040;-70
2021/12/07 03:29:55;;;;;;;16.80;4.03;;;;;;;1.95;99.56;100720.69;5072554;28;20024;-70
2021/12/07 03:32:20;;;;;;;20.83;4.80;;;;;;;1.91;99.43;100725.22;5054130;28;20075;-70
2021/12/07 03:34:46;;;;;;;24.98;4.55;;;;;;;1.89;99.27;100734.91;5051699;28;20479;-70
2021/12/07 03:37:11;;;;;;;16.20;4.43;;;;;;;1.89;99.38;100734.91;5070881;28;20077;-70
2021/12/07 03:39:36;;;;;;;24.45;4.00;;;;;;;1.85;99.24;100742.06;5054464;28;20029;-70
2021/12/07 03:42:02;;;;;;;23.48;4.82;;;;;;;1.85;99.21;100757.78;5032412;28;20104;-71
2021/12/07 03:44:27;;;;;;;20.55;4.47;;;;;;;1.83;99.13;100751.75;5032494;28;20025;-70
2021/12/07 03:46:52;;;;;;;22.95;4.22;;;;;;;1.82;99.11;100760.50;5032321;28;20025;-70
2021/12/07 03:49:18;;;;;;;29.77;5.22;;;;;;;1.81;99.18;100765.81;5032137;28;20094;-70
2021/12/07 03:51:43;;;;;;;25.13;4.95;;;;;;;1.82;99.44;100760.50;5032270;28;20026;-71
2021/12/07 03:54:08;;;;;;;20.42;4.95;;;;;;;1.81;99.17;100760.56;5032326;28;20029;-70
2021/12/07 03:56:34;;;;;;;23.17;4.70;;;;;;;1.80;99.35;100772.81;5033292;28;20018;-71
2021/12/07 03:58:59;;;;;;;18.73;4.07;;;;;;;1.79;99.28;100762.41;5032192;28;20044;-71
2021/12/07 04:01:25;;;;;;;19.45;4.13;;;;;;;1.78;99.21;100768.56;5032096;28;20040;-71
2021/12/07 04:03:52;;;;;;;18.75;4.43;;;;;;;1.78;99.09;100765.94;5032509;28;20025;-71
2021/12/07 04:06:19;;;;;;;22.05;4.40;;;;;;;1.75;99.05;100759.06;5032000;28;20036;-71
2021/12/07 04:08:45;;;;;;;27.65;4.55;;;;;;;1.76;99.16;100766.00;5032038;28;20419;-71
2021/12/07 04:11:10;;;;;;;19.50;4.30;;;;;;;1.76;99.24;100762.53;5031702;28;20030;-71
2021/12/07 04:13:36;;;;;;;22.30;4.15;;;;;;;1.75;99.26;100768.66;5032046;28;20029;-71
2021/12/07 04:16:03;;;;;;;17.73;3.85;;;;;;;1.74;99.19;100772.22;5031638;28;20033;-71
2021/12/07 04:18:29;;;;;;;19.17;5.00;;;;;;;1.73;99.24;100779.22;5031961;28;20531;-71
2021/12/07 04:20:55;;;;;;;18.08;4.13;;;;;;;1.72;99.01;100776.69;5032282;28;20120;-71
2021/12/07 04:23:21;;;;;;;16.95;4.10;;;;;;;1.72;99.13;100779.31;5031708;28;20017;-71
2021/12/07 04:25:46;;;;;;;18.05;3.88;;;;;;;1.70;99.18;100784.59;5031659;28;20037;-71
2021/12/07 04:28:11;;;;;;;18.40;3.95;;;;;;;1.71;99.15;100785.44;5031255;28;20033;-72
2021/12/07 04:30:40;;;;;;;21.88;4.45;;;;;;;1.71;98.96;100788.91;5031217;28;20026;-71
2021/12/07 04:33:08;;;;;;;17.48;3.90;;;;;;;1.71;99.48;100783.66;5031591;28;20059;-71
2021/12/07 04:35:35;;;;;;;16.52;3.97;;;;;;;1.74;99.31;100793.16;5053578;28;20479;-71
2021/12/07 04:38:01;;;;;;;19.10;3.60;;;;;;;1.76;99.30;100776.47;5057101;28;20036;-71
2021/12/07 04:40:29;;;;;;;22.67;4.43;;;;;;;1.77;99.62;100793.91;5057321;28;20103;-72
2021/12/07 04:42:55;;;;;;;20.85;3.78;;;;;;;1.81;99.58;100799.84;5057616;28;20505;-72
2021/12/07 04:45:48;;;;;;;23.95;3.80;;;;;;;1.80;99.54;100806.88;5063296;28;20052;-72
2021/12/07 04:58:57;;;;;;;17.08;3.75;;;;;;;1.76;99.29;100813.13;5070918;28;20047;-71
2021/12/07 05:01:24;;;;;;;21.67;3.97;;;;;;;1.75;99.15;100798.34;5070634;28;20024;-71
2021/12/07 05:03:51;;;;;;;23.02;3.97;;;;;;;1.74;99.12;100806.25;5061173;28;20368;-71
2021/12/07 05:06:19;;;;;;;19.20;3.78;;;;;;;1.73;99.26;100821.09;5059143;28;20032;-72
2021/12/07 05:08:48;;;;;;;23.08;4.05;;;;;;;1.72;99.29;100816.78;5055177;28;20164;-71
2021/12/07 05:40:11;;;;;;;17.58;5.45;;;;;;;1.37;98.71;100871.38;5055779;28;20070;-72
2021/12/07 05:42:37;;;;;;;;;;;;;;;1.42;98.47;100866.81;5070575;28;20470;-72
2021/12/07 05:45:05;;;;;;;23.08;6.00;;;;;;;1.33;98.67;100882.84;5070316;28;19916;-73
2021/12/07 05:47:30;;;;;;;23.83;5.95;;;;;;;1.29;98.67;100883.91;5054745;28;20452;-72
2021/12/07 05:49:56;;;;;;;22.50;6.60;;;;;;;1.26;98.63;100882.22;5058319;28;20115;-72
2021/12/07 05:52:21;;;;;;;23.08;6.85;;;;;;;1.23;98.47;100895.47;5056051;28;20029;-72
2021/12/07 05:54:46;;;;;;;22.65;7.05;;;;;;;1.19;98.72;100888.63;5057800;28;20124;-72
2021/12/07 05:57:12;;;;;;;23.95;7.43;;;;;;;1.20;98.86;100897.31;5060320;28;20474;-72
2021/12/07 05:59:37;;;;;;;25.45;7.32;;;;;;;1.18;98.63;100902.59;5051858;28;20087;-72
2021/12/07 06:02:03;;;;;;;24.17;7.20;;;;;;;1.16;98.73;100904.41;5066601;28;20016;-72
2021/12/07 06:04:30;;;;;;;21.38;6.63;;;;;;;1.15;98.71;100900.13;5055618;28;20036;-73
2021/12/07 06:06:56;;;;;;;29.60;6.97;;;;;;;1.14;98.96;100901.00;5064474;28;20124;-72
2021/12/07 06:09:21;;;;;;;26.60;7.18;;;;;;;1.13;98.85;100896.69;5048962;28;20116;-72
2021/12/07 06:11:49;;;;;;;29.00;6.65;;;;;;;1.12;98.55;100905.44;5064568;28;20024;-73
2021/12/07 06:14:18;;;;;;;22.23;6.95;;;;;;;1.10;98.66;100904.66;5068281;28;20021;-71
2021/12/07 06:16:44;;;;;;;21.70;6.75;;;;;;;1.09;98.63;100910.78;5065332;28;20025;-71
2021/12/07 06:19:09;;;;;;;31.08;7.45;;;;;;;1.07;98.76;100903.00;5029948;28;20032;-71
2021/12/07 06:21:34;;;;;;;22.00;6.82;;;;;;;1.06;98.34;100897.81;5030045;28;20021;-71
2021/12/07 06:24:00;;;;;;;24.80;6.60;;;;;;;1.06;98.61;100903.06;5030272;28;20052;-72
2021/12/07 06:26:25;;;;;;;22.15;7.10;;;;;;;1.04;98.61;100910.09;5029931;28;20387;-73
2021/12/07 06:28:50;;;;;;;28.58;7.47;;;;;;;1.00;98.43;100911.97;5030194;28;20055;-73
2021/12/07 06:31:16;;;;;;;30.23;7.35;;;;;;;0.99;98.53;100915.50;5029522;28;20372;-73
2021/12/07 06:33:41;;;;;;;22.48;6.75;;;;;;;0.97;98.60;100921.72;5033724;28;20032;-73
2021/12/07 06:36:07;;;;;;;29.92;7.40;;;;;;;0.96;98.65;100920.84;5048865;28;20116;-73
2021/12/07 06:38:34;;;;;;;28.55;6.78;;;;;;;0.94;98.77;100920.03;5049789;28;20028;-74
2021/12/07 06:41:02;;;;;;;29.67;8.23;;;;;;;0.92;99.17;100922.72;5042024;28;20024;-74
2021/12/07 06:43:27;;;;;;;27.88;7.20;;;;;;;0.93;98.80;100915.69;5069682;28;20508;-74
2021/12/07 06:45:53;;;;;;;22.95;6.95;;;;;;;0.94;99.17;100924.41;5038473;28;20024;-73
2021/12/07 06:48:19;;;;;;;28.73;7.80;;;;;;;0.90;99.19;100916.69;5059938;28;20036;-74
2021/12/07 06:50:44;;;;;;;25.83;7.28;;;;;;;0.90;99.09;100921.91;5071004;28;20025;-73
2021/12/07 06:53:10;;;;;;;25.40;8.07;;;;;;;0.89;99.49;100914.97;5069965;28;20470;-72
2021/12/07 06:55:36;;;;;;;26.40;7.28;;;;;;;0.89;99.51;100909.72;5060491;28;20029;-72
2021/12/07 06:58:02;;;;;;;24.70;8.18;;;;;;;0.88;99.25;100921.13;5071568;28;20017;-72
2021/12/07 07:00:27;;;;;;;30.55;7.85;;;;;;;0.89;99.61;100928.03;5062566;28;20032;-72
2021/12/07 07:02:53;;;;;;;25.45;7.80;;;;;;;0.88;99.89;100918.50;5050923;28;20052;-72
2021/12/07 07:05:18;;;;;;;27.13;8.02;;;;;;;0.88;99.63;100928.09;5055289;28;20052;-72
2021/12/07 07:07:44;;;;;;;31.70;7.78;;;;;;;0.86;99.93;100928.13;5053581;28;20153;-72
2021/12/07 07:10:14;;;;;;;28.20;8.00;;;;;;;0.86;99.49;100935.13;5042222;28;20489;-72
2021/12/07 07:12:40;;;;;;;27.45;8.50;;;;;;;0.84;99.90;100924.72;5052443;28;20021;-72
2021/12/07 07:15:07;;;;;;;30.20;8.40;;;;;;;0.85;99.91;100934.28;5052061;28;20037;-73
2021/12/07 07:17:32;;;;;;;27.30;8.05;;;;;;;0.86;99.91;100930.75;5052320;28;20520;-73
2021/12/07 07:19:57;;;;;;;32.13;8.05;;;;;;;0.85;99.62;100928.19;5042700;28;20041;-72
2021/12/07 07:22:23;;;;;;;28.42;8.40;;;;;;;0.84;99.47;100926.50;5037907;28;20031;-72
2021/12/07 07:24:48;;;;;;;25.17;7.95;;;;;;;0.84;99.89;100927.34;5038042;28;20025;-72
2021/12/07 07:27:13;;;;;;;25.05;8.85;;;;;;;0.84;99.89;100929.13;5034197;28;20025;-72
2021/12/07 07:29:39;;;;;;;31.40;8.43;;;;;;;0.79;100.00;100928.44;5032707;28;20033;-72
2021/12/07 07:32:05;;;;;;;30.98;8.32;;;;;;;0.84;99.61;100947.41;5032413;28;20067;-72
2021/12/07 07:34:30;;;;;;;24.92;8.40;;;;;;;0.85;99.79;100956.94;5031181;28;20033;-72
2021/12/07 07:36:55;;;;;;;28.08;9.27;;;;;;;0.86;99.86;100949.06;5035604;28;20077;-72
2021/12/07 07:39:21;;;;;;;26.48;8.15;;;;;;;0.86;100.00;100941.22;5031985;28;20369;-72
2021/12/07 07:41:46;;;;;;;27.67;8.82;;;;;;;0.89;100.00;100945.50;5033742;28;20041;-72
2021/12/07 07:44:12;;;;;;;25.85;8.85;;;;;;;0.89;100.00;100946.34;5052076;28;20039;-72
2021/12/07 07:46:37;;;;;;;32.72;9.00;;;;;;;0.92;100.00;100945.41;5061358;28;20033;-72
2021/12/07 07:49:04;;;;;;;33.92;8.43;;;;;;;0.93;100.00;100941.84;5037327;28;20017;-71
2021/12/07 07:51:30;;;;;;;32.38;8.90;;;;;;;0.94;100.00;100933.13;5045290;28;20045;-72
2021/12/07 07:53:58;;;;;;;30.33;8.40;;;;;;;0.92;100.00;100935.78;5033623;28;20032;-71
2021/12/07 07:56:23;;;;;;;25.63;8.38;;;;;;;0.96;100.00;100933.06;5037832;28;20036;-72
2021/12/07 07:58:48;;;;;;;29.42;8.68;;;;;;;0.97;100.00;100938.25;5038512;28;20475;-71
2021/12/07 08:01:14;;;;;;;27.10;9.38;;;;;;;0.98;100.00;100929.47;5046596;28;20056;-71
2021/12/07 08:03:39;;;;;;;29.85;8.50;;;;;;;0.99;100.00;100935.56;5050525;28;20040;-71
2021/12/07 08:06:04;;;;;;;35.72;9.50;;;;;;;1.00;100.00;100932.03;5051473;28;20037;-71
2021/12/07 08:08:30;;;;;;;30.65;8.55;;;;;;;1.01;100.00;100933.75;5051257;28;20047;-72
2021/12/07 08:10:55;;;;;;;21.58;7.13;;;;;;;1.02;100.00;100940.69;5051304;28;20037;-72
2021/12/07 08:13:21;;;;;;;29.50;8.50;;;;;;;1.02;100.00;100944.16;5042873;28;20079;-73
2021/12/07 08:15:49;;;;;;;28.42;9.38;;;;;;;1.02;99.98;100949.38;5047297;28;20021;-73
2021/12/07 08:18:14;;;;;;;26.35;8.02;;;;;;;1.04;100.00;100955.41;5055101;28;20055;-73
2021/12/07 08:20:41;;;;;;;31.77;8.15;;;;;;;1.05;100.00;100956.25;5051428;28;20037;-73
2021/12/07 08:23:07;;;;;;;22.80;7.75;;;;;;;1.05;100.00;100964.09;5046084;28;20107;-70
2021/12/07 08:25:39;;;;;;;29.52;7.32;;;;;;;1.06;99.81;100971.91;5037252;28;20026;-71
2021/12/07 08:28:07;;;;;;;18.23;6.97;;;;;;;1.09;100.00;100973.56;5035638;28;20033;-70
2021/12/07 08:30:33;;;;;;;22.23;7.03;;;;;;;1.09;100.00;100978.81;5047011;28;20115;-70
2021/12/07 08:32:59;;;;;;;20.08;6.95;;;;;;;1.08;99.93;100974.47;5064887;28;20688;-70
2021/12/07 08:35:24;;;;;;;23.02;6.93;;;;;;;1.09;99.99;100978.81;5044420;28;20029;-71
2021/12/07 08:37:50;;;;;;;22.73;7.38;;;;;;;1.10;99.86;100964.81;5048417;28;20025;-71
2021/12/07 08:40:19;;;;;;;19.08;6.57;;;;;;;1.07;99.93;100970.16;5042783;28;20136;-71
2021/12/07 08:42:44;;;;;;;19.73;6.35;;;;;;;1.09;99.67;100979.66;5052246;28;20024;-71
2021/12/07 08:45:10;;;;;;;23.20;6.32;;;;;;;1.11;99.94;100977.81;5052168;28;20040;-70
2021/12/07 08:47:35;;;;;;;18.45;6.25;;;;;;;1.11;99.94;100972.59;5051942;28;20075;-70
2021/12/07 08:50:03;;;;;;;19.42;6.55;;;;;;;1.13;99.76;100969.09;5055224;28;20466;-70
2021/12/07 08:52:29;;;;;;;22.98;6.38;;;;;;;1.16;99.68;100964.59;5040214;28;20041;-76
2021/12/07 09:00:16;;;;;;;19.48;6.15;;;;;;;1.27;99.98;100959.00;5069582;28;20501;-71
2021/12/07 09:02:42;;;;;;;20.52;6.07;;;;;;;1.31;99.94;100938.78;5055906;28;20016;-70
2021/12/07 09:05:07;;;;;;;17.50;6.55;;;;;;;1.37;99.86;100938.56;5069772;28;20028;-69
2021/12/07 09:07:32;;;;;;;17.17;6.43;;;;;;;1.41;99.67;100933.16;5043432;28;20043;-69
2021/12/07 09:09:58;;;;;;;19.58;6.65;;;;;;;1.47;100.00;100932.09;5051444;28;20540;-69
2021/12/07 09:12:23;;;;;;;19.45;6.28;;;;;;;1.55;99.83;100934.41;5049144;28;20992;-70
2021/12/07 09:14:52;;;;;;;15.23;6.40;;;;;;;1.61;99.85;100928.94;5046667;28;20482;-70
2021/12/07 09:17:17;;;;;;;18.10;6.37;;;;;;;1.68;100.00;100933.03;5044058;28;20044;-69
2021/12/07 09:19:42;;;;;;;21.52;6.35;;;;;;;1.74;100.00;100935.41;5048631;28;20330;-70
2021/12/07 09:22:08;;;;;;;20.30;6.35;;;;;;;1.80;99.74;100944.81;5048296;28;20059;-70
2021/12/07 09:24:34;;;;;;;17.45;6.68;;;;;;;1.84;99.44;100935.91;5048314;28;20029;-70
2021/12/07 09:27:00;;;;;;;16.25;6.50;;;;;;;1.90;99.19;100935.69;5054810;28;20025;-70
2021/12/07 09:29:26;;;;;;;20.27;6.35;;;;;;;1.97;98.97;100929.28;5072337;28;20056;-70
2021/12/07 09:31:51;;;;;;;15.65;5.95;;;;;;;2.02;98.90;100940.44;5046402;28;20060;-70
2021/12/07 09:34:17;;;;;;;19.85;6.43;;;;;;;2.10;98.81;100937.53;5063880;28;20032;-69
2021/12/07 09:36:43;;;;;;;19.95;6.00;;;;;;;2.18;98.38;100934.56;5065918;28;20049;-73
2021/12/07 09:39:13;;;;;;;17.08;6.45;;;;;;;2.26;97.98;100939.50;5071612;28;20118;-71
2021/12/07 09:41:39;;;;;;;19.60;6.07;;;;;;;2.31;98.01;100942.81;5082900;28;20536;-68
2021/12/07 09:44:07;;;;;;;20.77;6.60;;;;;;;2.36;97.38;100939.06;5057453;28;20079;-68
2021/12/07 09:46:32;;;;;;;17.85;5.35;;;;;;;2.43;97.15;100933.59;5072957;28;20390;-69
2021/12/07 09:48:58;;;;;;;19.60;5.72;;;;;;;2.48;97.22;100937.75;5057923;28;20029;-68
2021/12/07 09:51:26;;;;;;;18.40;5.95;;;;;;;2.56;97.29;100934.78;5056164;28;20119;-68
2021/12/07 09:53:53;;;;;;;14.80;5.80;;;;;;;2.63;97.06;100941.50;5066945;28;20028;-68
2021/12/07 09:56:20;;;;;;;23.02;6.65;;;;;;;2.69;96.33;100937.75;5073924;28;20039;-68
2021/12/07 09:58:48;;;;;;;21.23;6.10;;;;;;;2.74;96.57;100933.16;5066370;28;20028;-68
2021/12/07 10:01:14;;;;;;;19.73;5.50;;;;;;;2.79;96.17;100925.94;5070634;28;20390;-68
2021/12/07 10:03:40;;;;;;;20.70;5.97;;;;;;;2.84;96.24;100928.38;5051692;28;20029;-67
2021/12/07 10:06:07;;;;;;;19.33;6.00;;;;;;;2.91;95.79;100919.31;5071576;28;20028;-68
2021/12/07 10:08:33;;;;;;;16.63;5.47;;;;;;;2.98;95.75;100928.59;5067864;28;20102;-68
2021/12/07 10:11:01;;;;;;;17.52;6.07;;;;;;;3.02;95.61;100929.34;5063214;28;20029;-68
2021/12/07 10:13:28;;;;;;;17.05;5.78;;;;;;;3.08;95.42;100922.06;5070917;28;20032;-68
2021/12/07 10:15:56;;;;;;;22.73;5.75;;;;;;;3.13;95.03;100913.97;5072782;28;20056;-68
2021/12/07 10:18:24;;;;;;;22.73;5.95;;;;;;;3.15;94.45;100902.50;5064468;28;20021;-68
2021/12/07 10:20:53;;;;;;;21.27;5.53;;;;;;;3.21;94.61;100896.09;5069836;28;20441;-69
2021/12/07 10:23:19;;;;;;;18.25;4.97;;;;;;;3.29;94.87;100906.28;5062199;28;20026;-69
2021/12/07 10:25:59;;;;;;;18.60;4.93;;;;;;;3.36;94.53;100904.22;5068974;28;20485;-69
2021/12/07 10:28:34;;;;;;;17.00;5.07;;;;;;;3.41;94.18;100902.22;5054339;28;20042;-69
2021/12/07 10:31:08;;;;;;;14.15;4.53;;;;;;;3.48;94.09;100904.50;5064873;28;20071;-68
2021/12/07 10:33:43;;;;;;;17.50;4.85;;;;;;;3.55;93.45;100896.34;5034675;28;20115;-69
2021/12/07 10:36:21;;;;;;;17.50;4.85;;;;;;;3.61;94.26;100889.03;5054108;28;20037;-69
2021/12/07 10:39:29;;;;;;;11.35;4.60;;;;;;;3.67;93.71;100894.00;5038849;28;20030;-69
2021/12/07 10:42:01;;;;;;;18.20;4.78;;;;;;;3.70;92.65;100877.25;5050891;28;20174;-70
2021/12/07 10:44:30;;;;;;;14.75;4.97;;;;;;;3.73;92.33;100877.13;5045902;28;20480;-69
2021/12/07 10:46:58;;;;;;;16.40;5.32;;;;;;;3.78;92.76;100866.34;5034160;28;20026;-69
2021/12/07 10:49:34;;;;;;;14.35;4.88;;;;;;;3.80;92.40;100865.38;5050147;28;20044;-69
2021/12/07 10:52:06;;;;;;;19.08;5.10;;;;;;;3.86;91.98;100859.84;5074250;28;20033;-69
2021/12/07 10:54:39;;;;;;;18.83;4.68;;;;;;;3.89;91.50;100864.06;5036146;28;20057;-69
2021/12/07 10:57:06;;;;;;;23.02;5.43;;;;;;;3.92;91.33;100850.78;5061787;28;20056;-69
2021/12/07 10:59:33;;;;;;;18.10;5.55;;;;;;;3.96;91.69;100844.44;5074635;28;20616;-69
2021/12/07 11:02:09;;;;;;;18.50;5.00;;;;;;;3.99;90.49;100844.31;5064494;28;20064;-69
2021/12/07 11:04:34;;;;;;;20.98;5.45;;;;;;;4.03;90.96;100834.47;5052095;28;20036;-70
2021/12/07 11:07:23;;;;;;;15.35;5.63;;;;;;;4.08;91.07;100819.38;5033663;28;20447;-70
2021/12/07 11:10:07;;;;;;;17.15;5.35;;;;;;;4.12;90.40;100814.78;5034852;28;20056;-70
2021/12/07 11:13:02;;;;;;;15.00;4.90;;;;;;;4.16;90.52;100811.91;5036309;28;20483;-69
2021/12/07 11:15:31;;;;;;;17.02;5.40;;;;;;;4.21;90.56;100809.06;5040981;28;20052;-70
2021/12/07 11:18:09;;;;;;;19.80;5.95;;;;;;;4.26;89.97;100807.03;5037107;28;20026;-70
2021/12/07 11:20:36;;;;;;;14.50;5.78;;;;;;;4.28;89.08;100801.72;5051038;28;20086;-69
2021/12/07 11:23:08;;;;;;;13.30;5.00;;;;;;;4.29;88.70;100798.16;5053511;28;20025;-70
2021/12/07 11:31:49;;;;;;;15.25;5.53;;;;;;;4.37;89.19;100788.94;5049393;28;20040;-69
2021/12/07 11:34:30;;;;;;;14.27;6.03;;;;;;;4.35;88.05;100805.75;5040562;28;20487;-70
2021/12/07 11:37:04;;;;;;;19.92;6.75;;;;;;;4.34;87.34;100796.16;5042240;28;20038;-70
2021/12/07 11:39:35;;;;;;;21.33;7.05;;;;;;;4.31;87.81;100780.53;5058771;28;20146;-70
2021/12/07 11:42:14;;;;;;;18.63;7.00;;;;;;;4.37;87.68;100785.47;5042646;28;20036;-70
2021/12/07 11:44:48;;;;;;;17.98;6.97;;;;;;;4.39;87.18;100792.34;5057462;28;20036;-70
2021/12/07 11:47:13;;;;;;;20.70;8.07;;;;;;;4.40;86.61;100787.94;5061832;28;20028;-70
2021/12/07 11:49:39;;;;;;;20.50;7.50;;;;;;;4.42;86.00;100786.09;5066331;28;20103;-70
2021/12/07 11:52:07;;;;;;;18.20;6.55;;;;;;;4.41;86.46;100773.84;5066331;28;20052;-69
2021/12/07 11:54:36;;;;;;;20.05;7.07;;;;;;;4.48;87.33;100779.66;5056172;28;20544;-70
2021/12/07 11:57:04;;;;;;;20.90;7.10;;;;;;;4.51;87.90;100769.81;5055358;28;20036;-70
2021/12/07 11:59:31;;;;;;;21.27;6.50;;;;;;;4.56;87.21;100761.69;5044245;28;20084;-70
2021/12/07 12:01:56;;;;;;;17.10;5.93;;;;;;;4.60;86.39;100763.25;5040910;28;20357;-70
2021/12/07 12:04:22;;;;;;;21.30;5.72;;;;;;;4.63;85.70;100753.41;5049744;28;20047;-70
2021/12/07 12:06:49;;;;;;;19.77;5.20;;;;;;;4.66;86.86;100762.88;5041007;28;20021;-70
2021/12/07 12:09:16;;;;;;;17.17;5.07;;;;;;;4.66;85.18;100752.38;5053495;28;20187;-70
2021/12/07 12:12:05;;;;;;;17.00;4.88;;;;;;;4.73;85.90;100743.25;5047660;28;20029;-75
2021/12/07 12:14:45;;;;;;;16.30;5.15;;;;;;;4.75;85.58;100737.91;5066445;28;20033;-71
2021/12/07 12:17:17;;;;;;;16.60;5.13;;;;;;;4.75;85.80;100740.53;5036068;28;20380;-70
2021/12/07 12:20:10;;;;;;;12.48;4.68;;;;;;;4.79;85.31;100731.53;5058157;28;20021;-70
2021/12/07 12:22:53;;;;;;;14.88;4.93;;;;;;;4.80;85.14;100725.34;5049245;28;20055;-69
2021/12/07 12:25:22;;;;;;;18.08;5.13;;;;;;;4.82;84.91;100724.31;5030189;28;20049;-70
2021/12/07 12:27:50;;;;;;;16.90;5.32;;;;;;;4.84;83.92;100718.13;5037186;28;20029;-71
2021/12/07 12:30:27;;;;;;;15.45;5.22;;;;;;;4.85;84.00;100712.78;5052304;28;20621;-70
2021/12/07 12:32:56;;;;;;;13.23;4.75;;;;;;;4.87;84.57;100705.63;5054224;28;20029;-70
2021/12/07 12:35:35;;;;;;;25.33;4.82;;;;;;;4.92;85.15;100695.69;5048131;28;20040;-71
2021/12/07 12:38:01;;;;;;;11.23;4.07;;;;;;;4.94;84.92;100693.81;5045507;28;20025;-71
2021/12/07 12:40:32;;;;;;;17.23;3.90;;;;;;;4.95;83.88;100692.06;5054917;28;20123;-70
2021/12/07 12:42:58;;;;;;;16.35;3.95;;;;;;;4.93;83.66;100689.53;5042338;28;20098;-71
2021/12/07 12:45:29;;;;;;;13.73;4.35;;;;;;;4.94;83.73;100682.47;5071122;28;20040;-71
2021/12/07 12:48:01;;;;;;;14.57;3.60;;;;;;;4.96;84.35;100664.78;5035369;28;20112;-71
2021/12/07 12:50:31;;;;;;;13.07;4.20;;;;;;;4.94;83.09;100651.72;5053267;28;20475;-71
2021/12/07 12:53:05;;;;;;;15.88;3.80;;;;;;;4.97;83.02;100650.72;5051956;28;20034;-71
2021/12/07 12:55:41;;;;;;;11.77;3.85;;;;;;;4.98;83.28;100629.56;5052232;28;20491;-72
2021/12/07 12:58:29;;;;;;;12.43;4.03;;;;;;;4.96;83.65;100618.28;5053393;28;20403;-71
2021/12/07 13:01:10;;;;;;;10.80;2.87;;;;;;;4.98;81.87;100607.69;5053347;28;20072;-72
2021/12/07 13:03:51;;;;;;;15.88;3.72;;;;;;;4.97;83.18;100612.06;5051520;28;20262;-71
2021/12/07 13:06:22;;;;;;;14.05;3.50;;;;;;;4.97;82.57;100590.16;5053906;28;20028;-71
2021/12/07 13:09:19;;;;;;;13.70;3.08;;;;;;;4.99;83.29;100573.34;5068703;28;20051;-72
2021/12/07 13:11:57;;;;;;;11.07;3.33;;;;;;;4.96;81.46;100560.38;5063037;28;20601;-72
2021/12/07 13:14:22;;;;;;;11.82;2.88;;;;;;;4.95;80.41;100555.22;5046347;28;20474;-72
2021/12/07 13:17:00;;;;;;;9.70;2.90;;;;;;;4.94;82.45;100549.06;5070971;28;20031;-71
2021/12/07 13:19:28;;;;;;;18.92;3.78;;;;;;;4.93;80.88;100563.19;5067358;28;20285;-72
2021/12/07 13:21:55;;;;;;;13.60;3.42;;;;;;;4.90;80.82;100549.38;5063037;28;20024;-71